Terminal Aerodrome Forecast
Issued by NWS St Louis, MO

Home | Current Version | Previous Version | Text Only | Print | Product List | Glossary On
Versions: 1 2 3 4 5 6 7 8 9 10 11 12 13 14 15 16 17 18 19 20 21 22 23 24 25 26 27 28 29 30 31 32
000
FTUS43 KLSX 012051 AAA
TAFSTL
TAF AMD
KSTL 012051Z 0121/0224 29019G32KT P6SM SCT040
     FM020000 30012G20KT P6SM FEW250
     FM020200 30008KT P6SM FEW250
     FM021700 26015G28KT P6SM FEW250=

USA.gov is the U.S. government's official web portal to all federal, state and local government web resources and services.